Time;durP1;ratioP1;P1;durP2;ratioP2;P2;SDS_P1;SDS_P2;PMS_P1;PMS_P2;Temp;Humidity;BMP_temperature;BMP_pressure;BME280_temperature;BME280_humidity;BME280_pressure;Samples;Min_cycle;Max_cycle;Signal;HPM_P1;HPM_P2
2023/01/21 00:00:53;;;;;;;;;9.50;9.00;;;;;6.10;70.44;101481.41;5059490;28;45445;-64
2023/01/21 00:03:18;;;;;;;;;17.25;12.25;;;;;6.22;70.78;101491.69;5059722;28;45570;-63
2023/01/21 00:05:43;;;;;;;;;9.75;8.00;;;;;6.19;70.02;101490.91;5060743;28;45608;-67
2023/01/21 00:08:12;;;;;;;;;12.00;11.00;;;;;6.13;70.96;101497.22;5059675;28;45389;-65
2023/01/21 00:10:38;;;;;;;;;15.00;9.50;;;;;6.22;71.14;101496.97;5059064;28;45325;-63
2023/01/21 00:13:03;;;;;;;;;12.00;8.00;;;;;6.17;70.48;101487.44;5057295;28;45239;-64
2023/01/21 00:15:29;;;;;;;;;8.50;8.25;;;;;6.12;70.23;101495.47;5038539;28;45344;-65
2023/01/21 00:17:54;;;;;;;;;12.00;9.50;;;;;6.04;71.17;101500.06;5056203;28;45501;-62
2023/01/21 00:20:20;;;;;;;;;12.25;11.00;;;;;6.05;70.38;101495.63;5056335;28;45374;-64
2023/01/21 00:22:45;;;;;;;;;11.75;11.00;;;;;6.02;70.39;101506.28;5057027;28;45632;-64
2023/01/21 00:25:11;;;;;;;;;11.75;11.00;;;;;5.90;71.21;101481.03;5056983;28;45658;-65
2023/01/21 00:27:36;;;;;;;;;13.50;7.75;;;;;5.96;71.54;101495.84;5055761;28;45393;-61
2023/01/21 00:30:02;;;;;;;;;13.75;12.00;;;;;6.02;71.00;101504.50;5054808;28;45739;-63
2023/01/21 00:32:27;;;;;;;;;11.00;11.00;;;;;6.06;71.86;101505.28;5053648;28;45524;-63
2023/01/21 00:34:52;;;;;;;;;8.00;5.00;;;;;6.09;71.57;101506.09;5057008;28;46296;-61
2023/01/21 00:37:18;;;;;;;;;9.00;6.75;;;;;6.09;71.35;101514.00;5054588;28;45389;-66
2023/01/21 00:39:43;;;;;;;;;8.75;8.75;;;;;5.97;71.68;101506.38;5056044;28;45327;-61
2023/01/21 00:42:10;;;;;;;;;9.00;8.50;;;;;5.97;71.70;101516.06;5055353;28;45366;-61
2023/01/21 00:44:38;;;;;;;;;9.50;9.50;;;;;6.08;72.08;101516.69;5055606;28;45496;-61
2023/01/21 00:47:04;;;;;;;;;16.50;12.00;;;;;6.03;71.37;101519.44;5056082;28;45223;-63
2023/01/21 00:49:30;;;;;;;;;11.00;7.00;;;;;5.96;71.60;101501.97;5058395;28;45450;-64
2023/01/21 00:51:56;;;;;;;;;7.00;7.00;;;;;5.93;72.09;101530.25;5058096;28;45535;-65
2023/01/21 00:54:21;;;;;;;;;7.75;5.50;;;;;5.85;71.72;101523.31;5055438;28;47257;-63
2023/01/21 00:56:47;;;;;;;;;8.25;6.75;;;;;5.85;72.40;101539.16;5056696;28;45344;-63
2023/01/21 00:59:16;;;;;;;;;8.00;5.25;;;;;5.94;72.21;101534.63;5055670;28;45484;-63
2023/01/21 01:01:41;;;;;;;;;9.75;6.00;;;;;5.97;72.13;101547.75;5056183;28;45687;-62
2023/01/21 01:04:09;;;;;;;;;6.25;5.00;;;;;6.01;72.30;101544.16;5056462;28;46360;-66
2023/01/21 01:06:35;;;;;;;;;5.25;5.25;;;;;5.83;71.89;101530.41;5057157;28;45337;-66
2023/01/21 01:09:01;;;;;;;;;6.00;6.00;;;;;5.90;72.18;101547.03;5056897;28;45405;-61
2023/01/21 01:11:27;;;;;;;;;5.00;5.00;;;;;5.87;72.55;101549.69;5057312;28;45478;-64
2023/01/21 01:13:53;;;;;;;;;5.75;5.00;;;;;5.79;72.17;101544.56;5057300;28;45670;-63
2023/01/21 01:16:20;;;;;;;;;11.75;7.50;;;;;5.84;71.72;101544.47;5060628;28;45305;-64
2023/01/21 01:18:45;;;;;;;;;8.25;8.25;;;;;5.87;71.55;101553.22;5057697;28;45278;-64
2023/01/21 01:21:18;;;;;;;;;8.00;8.00;;;;;5.95;71.76;101560.13;5057150;28;45242;-63
2023/01/21 01:23:43;;;;;;;;;8.25;5.00;;;;;5.87;70.94;101545.28;5054300;28;45406;-63
2023/01/21 01:26:12;;;;;;;;;7.50;6.50;;;;;5.67;72.03;101529.00;5054387;28;45326;-60
2023/01/21 01:28:38;;;;;;;;;20.75;10.50;;;;;5.81;71.05;101569.16;5056242;28;45742;-64
2023/01/21 01:31:06;;;;;;;;;7.50;7.50;;;;;5.86;71.83;101569.09;5055406;28;45656;-63
2023/01/21 01:33:33;;;;;;;;;10.25;8.75;;;;;5.91;72.12;101578.66;5053367;28;45577;-65
2023/01/21 01:36:05;;;;;;;;;11.00;8.75;;;;;5.91;70.67;101573.38;5056165;28;45410;-64
2023/01/21 01:38:31;;;;;;;;;15.75;12.75;;;;;5.77;70.76;101558.72;5054526;28;45358;-63
2023/01/21 01:40:56;;;;;;;;;14.25;13.75;;;;;5.70;70.04;101571.16;5056512;28;45639;-66
2023/01/21 01:43:29;;;;;;;;;13.75;13.00;;;;;5.80;70.45;101575.34;5056272;28;45611;-66
2023/01/21 01:45:54;;;;;;;;;17.50;15.00;;;;;5.73;69.41;101571.09;5056980;28;45232;-63
2023/01/21 01:48:30;;;;;;;;;15.50;14.00;;;;;5.71;70.14;101586.06;5057918;28;45337;-65
2023/01/21 01:50:59;;;;;;;;;18.50;16.00;;;;;5.70;70.01;101594.91;5059584;28;45353;-64
2023/01/21 01:53:25;;;;;;;;;17.50;11.50;;;;;5.65;69.31;101590.63;5055404;28;45510;-64
2023/01/21 01:55:51;;;;;;;;;15.00;8.50;;;;;5.59;69.72;101595.09;5056255;28;45296;-66
2023/01/21 01:58:19;;;;;;;;;16.25;12.50;;;;;5.72;69.57;101606.28;5056406;28;45533;-62
2023/01/21 02:00:45;;;;;;;;;20.75;15.25;;;;;5.76;68.82;101607.13;5057264;28;45421;-64
2023/01/21 02:05:55;;;;;;;;;27.00;16.25;;;;;5.90;68.74;101627.09;5034430;28;45367;-63
2023/01/21 02:08:22;;;;;;;;;14.75;14.75;;;;;5.82;67.69;101628.97;5055792;28;45303;-61
2023/01/21 02:10:48;;;;;;;;;16.00;14.00;;;;;5.70;67.71;101613.38;5075064;28;45662;-63
2023/01/21 02:13:17;;;;;;;;;22.25;16.25;;;;;5.79;67.28;101634.31;5056145;27;47263;-63
2023/01/21 02:15:52;;;;;;;;;14.00;8.00;;;;;5.84;67.76;101632.44;5054466;28;45168;-62
2023/01/21 02:18:35;;;;;;;;;22.50;14.75;;;;;5.66;66.35;101647.78;5055212;28;46728;-60
2023/01/21 02:21:09;;;;;;;;;18.50;14.50;;;;;5.66;65.99;101642.50;5056026;28;45307;-61
2023/01/21 02:23:56;;;;;;;;;17.00;13.00;;;;;5.71;65.85;101662.63;5054288;28;46252;-60
2023/01/21 02:26:43;;;;;;;;;15.25;14.00;;;;;5.66;64.73;101653.06;5055684;28;45250;-62
2023/01/21 02:29:26;;;;;;;;;12.75;12.75;;;;;5.59;63.71;101660.22;5057776;28;45453;-62
2023/01/21 02:32:29;;;;;;;;;12.75;11.00;;;;;5.50;64.54;101665.66;5058915;28;45286;-62
2023/01/21 02:35:09;;;;;;;;;11.50;11.50;;;;;5.47;64.35;101676.25;5056138;28;46354;-64
2023/01/21 02:37:44;;;;;;;;;10.75;10.75;;;;;5.36;65.07;101680.88;5058639;28;45357;-61
2023/01/21 02:40:19;;;;;;;;;11.50;10.00;;;;;5.28;63.96;101683.63;5058998;28;45470;-63
2023/01/21 02:42:48;;;;;;;;;12.00;11.00;;;;;5.27;64.93;101701.22;5058745;28;45469;-62
2023/01/21 02:45:38;;;;;;;;;11.25;11.25;;;;;5.22;64.95;101713.63;5058227;28;45537;-60
2023/01/21 02:48:12;;;;;;;;;25.25;11.50;;;;;5.23;65.06;101720.63;5058412;28;45224;-63
2023/01/21 02:50:44;;;;;;;;;17.75;14.00;;;;;5.27;64.79;101724.09;5059782;28;45385;-64
2023/01/21 02:53:30;;;;;;;;;21.00;18.00;;;;;5.22;63.85;101726.81;5073515;27;45552;-65
2023/01/21 02:56:01;;;;;;;;;17.50;15.00;;;;;5.09;62.44;101729.66;5073267;27;45381;-64
2023/01/21 02:58:32;;;;;;;;;21.25;18.00;;;;;4.94;63.71;101731.59;5057004;28;45967;-61
2023/01/21 03:01:28;;;;;;;;;15.00;14.50;;;;;5.08;63.33;101744.63;5058196;28;45480;-61
2023/01/21 03:04:00;;;;;;;;;11.25;10.00;;;;;4.98;63.28;101750.91;5057481;28;45235;-60
2023/01/21 03:06:37;;;;;;;;;22.25;17.50;;;;;4.72;63.32;101754.78;5059062;28;46237;-61
2023/01/21 03:09:27;;;;;;;;;14.75;13.50;;;;;4.57;64.50;101762.91;5057811;28;45334;-61
2023/01/21 03:12:07;;;;;;;;;22.00;20.50;;;;;4.58;64.72;101753.22;5057892;28;46934;-61
2023/01/21 03:17:43;;;;;;;;;9.00;5.25;;;;;4.59;64.82;101774.28;5058058;28;45692;-62
2023/01/21 03:20:15;;;;;;;;;23.50;17.25;;;;;4.61;64.71;101777.75;5056654;28;45573;-64
2023/01/21 03:22:41;;;;;;;;;20.75;17.25;;;;;4.56;65.25;101765.56;5057467;28;45690;-63
2023/01/21 03:25:10;;;;;;;;;27.25;17.25;;;;;4.50;64.23;101766.47;5054327;28;46412;-65
2023/01/21 03:27:40;;;;;;;;;14.75;11.75;;;;;4.50;63.94;101792.81;5055912;28;45639;-65
2023/01/21 03:30:19;;;;;;;;;22.25;20.00;;;;;4.51;64.72;101780.53;5058464;28;45414;-62
2023/01/21 03:32:49;;;;;;;;;24.75;19.75;;;;;4.35;62.54;101782.47;5058381;28;45436;-65
2023/01/21 03:35:31;;;;;;;;;13.00;10.75;;;;;4.34;63.60;101796.53;5058109;28;45374;-61
2023/01/21 03:38:08;;;;;;;;;16.50;16.50;;;;;4.31;62.75;101807.09;5047193;28;46044;-60
2023/01/21 03:40:43;;;;;;;;;25.75;20.25;;;;;4.26;62.16;101814.16;5056665;28;45501;-65
2023/01/21 03:43:09;;;;;;;;;19.50;17.50;;;;;4.19;62.02;101807.22;5057914;28;45245;-62
2023/01/21 03:45:42;;;;;;;;;24.00;22.75;;;;;4.14;62.01;101816.03;5056140;28;45405;-63
2023/01/21 03:48:42;;;;;;;;;24.25;18.25;;;;;4.18;61.55;101816.03;5055866;28;46133;-62
2023/01/21 03:51:36;;;;;;;;;19.00;17.25;;;;;4.12;61.17;101812.53;5058837;28;45506;-66
2023/01/21 03:54:02;;;;;;;;;26.50;24.25;;;;;4.02;61.49;101821.41;5055134;28;45561;-64
2023/01/21 03:56:28;;;;;;;;;17.50;10.00;;;;;4.00;61.99;101828.44;5056732;28;45378;-64
2023/01/21 03:58:53;;;;;;;;;20.00;16.50;;;;;3.99;61.81;101831.09;5057944;28;45323;-64
2023/01/21 04:01:19;;;;;;;;;9.75;4.75;;;;;4.01;62.31;101830.19;5058832;28;45402;-62
2023/01/21 04:03:44;;;;;;;;;27.50;21.50;;;;;4.09;61.78;101838.91;5056625;28;45392;-63
2023/01/21 04:06:18;;;;;;;;;7.75;7.00;;;;;3.93;61.91;101829.41;5055869;28;45445;-64
2023/01/21 04:08:43;;;;;;;;;20.75;16.50;;;;;3.83;62.06;101833.00;5057414;28;45430;-64
2023/01/21 04:11:08;;;;;;;;;21.25;19.50;;;;;3.74;61.52;101826.06;5058339;28;45441;-64
2023/01/21 04:13:34;;;;;;;;;27.75;22.00;;;;;3.79;62.44;101850.59;5055457;28;45434;-62
2023/01/21 04:15:59;;;;;;;;;31.50;23.75;;;;;3.81;62.59;101846.19;5056934;28;45757;-64
2023/01/21 04:18:24;;;;;;;;;22.75;20.25;;;;;3.84;62.03;101840.00;5057134;28;45539;-65
2023/01/21 04:20:50;;;;;;;;;27.00;24.25;;;;;3.91;62.38;101846.97;5054578;28;45608;-61
2023/01/21 04:23:15;;;;;;;;;33.75;23.25;;;;;3.98;61.96;101859.19;5057297;28;45235;-64
2023/01/21 04:25:41;;;;;;;;;26.50;23.00;;;;;3.85;61.06;101854.91;5055866;28;45647;-64
2023/01/21 04:28:07;;;;;;;;;27.75;23.50;;;;;3.79;61.83;101853.22;5056570;28;45442;-66
2023/01/21 04:30:32;;;;;;;;;25.50;22.00;;;;;3.73;61.42;101860.28;5063525;28;45536;-63
2023/01/21 04:32:57;;;;;;;;;30.00;21.75;;;;;3.61;61.52;101852.47;5061690;27;45367;-64
2023/01/21 04:35:23;;;;;;;;;34.50;23.25;;;;;3.62;61.79;101860.34;5056480;28;45516;-62
2023/01/21 04:37:48;;;;;;;;;24.75;21.00;;;;;3.49;62.27;101862.19;5056870;28;46485;-64
2023/01/21 04:40:14;;;;;;;;;31.00;20.00;;;;;3.46;62.75;101871.84;5055938;28;45437;-62
2023/01/21 04:42:41;;;;;;;;;22.75;19.75;;;;;3.50;62.59;101871.81;5055176;28;45563;-60
2023/01/21 04:45:07;;;;;;;;;21.75;19.00;;;;;3.48;62.83;101857.81;5056953;28;45521;-61
2023/01/21 04:47:32;;;;;;;;;22.00;19.25;;;;;3.53;63.09;101879.72;5054001;28;45484;-64
2023/01/21 04:49:57;;;;;;;;;24.75;21.75;;;;;3.46;63.01;101870.09;5056410;28;45374;-63
2023/01/21 04:52:23;;;;;;;;;25.75;23.75;;;;;3.43;62.61;101878.03;5055321;28;45442;-61
2023/01/21 04:54:48;;;;;;;;;30.50;22.75;;;;;3.34;62.73;101869.31;5055596;28;45587;-63
2023/01/21 04:57:14;;;;;;;;;23.00;20.00;;;;;3.19;62.90;101867.63;5055568;28;45437;-61
2023/01/21 04:59:39;;;;;;;;;24.50;19.75;;;;;3.28;62.90;101871.97;5061167;28;45464;-60
2023/01/21 05:02:05;;;;;;;;;24.50;22.75;;;;;3.23;63.15;101874.63;5058646;28;45359;-60
2023/01/21 05:04:31;;;;;;;;;27.00;22.75;;;;;3.20;63.08;101880.78;5057632;28;45299;-63
2023/01/21 05:06:57;;;;;;;;;17.25;16.50;;;;;3.22;63.45;101875.50;5056657;28;46167;-61
2023/01/21 05:09:23;;;;;;;;;20.75;15.50;;;;;3.13;63.03;101880.81;5056195;28;46022;-63
2023/01/21 05:11:48;;;;;;;;;25.50;18.00;;;;;3.07;63.33;101875.59;5056595;28;45311;-59
2023/01/21 05:14:13;;;;;;;;;19.00;14.50;;;;;3.04;63.30;101872.97;5056830;28;45344;-64
2023/01/21 05:16:39;;;;;;;;;23.00;20.50;;;;;3.12;63.36;101886.94;5056032;28;46253;-60
2023/01/21 05:19:04;;;;;;;;;25.50;20.50;;;;;3.11;63.91;101886.06;5058530;28;45223;-59
2023/01/21 05:21:30;;;;;;;;;22.50;22.50;;;;;3.07;63.54;101878.22;5057736;28;45340;-59
2023/01/21 05:23:55;;;;;;;;;20.50;19.00;;;;;3.03;63.56;101871.22;5057229;28;45492;-61
2023/01/21 05:26:21;;;;;;;;;26.00;22.25;;;;;3.07;63.71;101886.09;5053922;28;46188;-59
2023/01/21 05:28:46;;;;;;;;;25.00;23.25;;;;;2.97;64.14;101893.13;5055176;28;45485;-59
2023/01/21 05:31:12;;;;;;;;;33.00;19.50;;;;;2.95;64.61;101901.03;5054055;28;45700;-60
2023/01/21 05:33:37;;;;;;;;;23.50;13.00;;;;;2.84;64.74;101897.56;5056487;28;45583;-62
2023/01/21 05:36:03;;;;;;;;;24.00;23.25;;;;;2.80;65.05;101901.09;5055300;28;45473;-62
2023/01/21 05:38:28;;;;;;;;;26.25;18.00;;;;;2.76;65.52;101896.72;5054575;28;45962;-60
2023/01/21 05:40:59;;;;;;;;;29.00;25.25;;;;;2.78;65.37;101905.47;5056214;28;45364;-62
2023/01/21 05:43:25;;;;;;;;;30.50;24.50;;;;;2.82;65.73;101909.84;5056523;28;45390;-60
2023/01/21 05:45:50;;;;;;;;;29.75;23.50;;;;;2.84;65.94;101923.84;5054180;28;47014;-63
2023/01/21 05:48:16;;;;;;;;;27.25;21.25;;;;;2.67;66.35;101910.75;5053065;28;45537;-62
2023/01/21 05:50:41;;;;;;;;;22.50;19.25;;;;;2.66;66.86;101923.91;5054716;28;45734;-62
2023/01/21 05:53:07;;;;;;;;;32.50;24.50;;;;;2.62;67.22;101922.16;5052448;28;45570;-63
2023/01/21 05:55:32;;;;;;;;;33.50;28.00;;;;;2.60;67.06;101923.91;5055387;28;46690;-65
2023/01/21 05:57:58;;;;;;;;;29.50;27.50;;;;;2.45;66.96;101908.16;5057933;28;45496;-64
2023/01/21 06:00:23;;;;;;;;;35.50;26.75;;;;;2.48;67.79;101924.81;5054872;28;45306;-64
2023/01/21 06:02:49;;;;;;;;;27.25;24.50;;;;;2.52;67.66;101928.31;5057177;28;45563;-62
2023/01/21 06:05:14;;;;;;;;;24.50;22.75;;;;;2.51;67.25;101934.44;5061871;27;45919;-65
2023/01/21 06:07:40;;;;;;;;;33.75;29.50;;;;;2.55;67.27;101926.53;5056891;28;45487;-66
2023/01/21 06:10:06;;;;;;;;;22.75;21.75;;;;;2.44;67.29;101922.19;5075080;27;45516;-62
2023/01/21 06:12:31;;;;;;;;;28.25;21.50;;;;;2.55;67.47;101949.31;5060434;28;45256;-63
2023/01/21 06:14:58;;;;;;;;;37.00;27.75;;;;;2.55;68.01;101942.28;5059818;28;45239;-60
2023/01/21 06:17:23;;;;;;;;;24.75;24.50;;;;;2.55;67.05;101938.78;5057774;28;45276;-63
2023/01/21 06:19:52;;;;;;;;;36.75;29.50;;;;;2.52;67.62;101946.69;5057310;28;45361;-65
2023/01/21 06:22:17;;;;;;;;;27.75;25.50;;;;;2.36;67.72;101932.72;5059762;28;45775;-61
2023/01/21 06:24:43;;;;;;;;;28.50;23.25;;;;;2.46;67.53;101962.44;5059510;28;46066;-61
2023/01/21 06:27:09;;;;;;;;;33.50;26.25;;;;;2.36;67.94;101962.47;5058987;28;45568;-62
2023/01/21 06:29:35;;;;;;;;;29.25;25.75;;;;;2.20;68.32;101929.19;5059025;28;45394;-63
2023/01/21 06:32:00;;;;;;;;;32.00;24.00;;;;;2.31;68.48;101964.19;5056976;28;45436;-63
2023/01/21 06:34:26;;;;;;;;;30.25;27.00;;;;;2.29;68.40;101962.44;5058516;28;45865;-62
2023/01/21 06:36:51;;;;;;;;;32.50;24.00;;;;;2.28;68.21;101969.44;5038781;28;45510;-65
2023/01/21 06:39:16;;;;;;;;;22.00;19.50;;;;;2.13;68.46;101944.97;5059175;28;45317;-62
2023/01/21 06:41:42;;;;;;;;;28.25;26.00;;;;;2.26;69.32;101973.84;5059114;28;45668;-64
2023/01/21 06:44:07;;;;;;;;;39.00;30.00;;;;;2.17;69.07;101955.44;5058690;28;46283;-63
2023/01/21 06:46:33;;;;;;;;;34.75;29.00;;;;;2.24;69.07;101967.72;5054497;28;45411;-61
2023/01/21 06:48:59;;;;;;;;;38.00;28.00;;;;;2.20;68.70;101965.06;5059237;28;45392;-61
2023/01/21 06:51:25;;;;;;;;;34.00;29.50;;;;;2.38;68.85;101986.09;5056719;28;45492;-62
2023/01/21 06:53:50;;;;;;;;;43.75;35.00;;;;;2.27;69.09;101962.44;5056268;28;45587;-61
2023/01/21 06:56:15;;;;;;;;;26.00;26.00;;;;;2.31;68.83;101979.06;5057829;28;45193;-63
2023/01/21 06:58:40;;;;;;;;;40.25;31.50;;;;;2.49;68.62;101999.22;5055734;28;46947;-64
2023/01/21 07:01:06;;;;;;;;;40.50;35.25;;;;;2.47;68.72;101998.31;5055845;27;45588;-63
2023/01/21 07:03:31;;;;;;;;;28.25;25.50;;;;;2.50;68.79;102000.97;5058526;28;45635;-61
2023/01/21 07:05:57;;;;;;;;;34.50;33.75;;;;;2.52;69.36;102001.84;5061817;28;45447;-62
2023/01/21 07:08:22;;;;;;;;;28.75;28.75;;;;;2.47;68.44;102020.19;5057061;28;45389;-61
2023/01/21 07:10:48;;;;;;;;;33.75;26.75;;;;;2.42;69.20;102019.34;5055883;28;45684;-61
2023/01/21 07:13:13;;;;;;;;;41.75;33.50;;;;;2.29;69.08;102010.56;5056242;28;45979;-60
2023/01/21 07:15:38;;;;;;;;;31.50;25.00;;;;;2.33;69.04;102019.31;5053632;28;49647;-60
2023/01/21 07:18:04;;;;;;;;;30.00;24.00;;;;;2.35;69.19;102023.72;5056951;28;45342;-60
2023/01/21 07:20:29;;;;;;;;;27.50;24.50;;;;;2.27;69.29;102030.69;5057774;28;45416;-59
2023/01/21 07:22:55;;;;;;;;;49.25;34.75;;;;;2.30;69.91;102025.44;5057096;28;46158;-60
2023/01/21 07:25:20;;;;;;;;;36.25;34.00;;;;;2.20;69.32;102028.06;5058024;28;45414;-60
2023/01/21 07:27:45;;;;;;;;;49.25;28.00;;;;;2.26;69.22;102039.47;5055390;28;45985;-58
2023/01/21 07:30:18;;;;;;;;;45.50;32.25;;;;;2.21;69.63;102040.31;5052534;28;45464;-61
2023/01/21 07:32:45;;;;;;;;;37.25;33.50;;;;;2.29;69.56;102049.94;5045160;28;47067;-60
2023/01/21 07:35:10;;;;;;;;;40.25;36.50;;;;;2.41;69.39;102058.72;5072950;27;45419;-61
2023/01/21 07:37:36;;;;;;;;;45.00;35.00;;;;;2.45;68.68;102057.84;5057671;28;45378;-62
2023/01/21 07:40:01;;;;;;;;;30.75;26.50;;;;;2.41;68.90;102059.59;5056559;28;45215;-61
2023/01/21 07:42:26;;;;;;;;;38.50;27.75;;;;;2.33;68.81;102038.56;5060282;28;45938;-64
2023/01/21 07:44:52;;;;;;;;;31.25;27.75;;;;;2.53;69.02;102071.88;5057252;28;45296;-63
2023/01/21 07:47:17;;;;;;;;;39.25;37.25;;;;;2.54;68.25;102070.97;5059001;28;45274;-63
2023/01/21 07:49:43;;;;;;;;;54.75;42.75;;;;;2.51;68.38;102076.25;5053491;28;45779;-63
2023/01/21 07:52:08;;;;;;;;;46.00;33.50;;;;;2.48;68.82;102081.50;5055868;28;46836;-61
2023/01/21 07:54:33;;;;;;;;;45.75;40.50;;;;;2.41;68.90;102074.47;5059990;28;45367;-62
2023/01/21 07:56:59;;;;;;;;;50.25;39.25;;;;;2.47;68.44;102080.59;5081052;27;45476;-61
2023/01/21 07:59:24;;;;;;;;;59.25;43.00;;;;;2.48;68.81;102086.75;5064189;27;45590;-62
2023/01/21 08:01:50;;;;;;;;;50.50;36.25;;;;;2.51;68.56;102092.00;5061999;28;45253;-61
2023/01/21 08:04:15;;;;;;;;;51.50;35.00;;;;;2.51;68.32;102097.25;5055266;28;45964;-60
2023/01/21 08:06:40;;;;;;;;;44.25;38.50;;;;;2.41;68.35;102103.34;5056631;28;45431;-61
2023/01/21 08:09:07;;;;;;;;;51.75;42.00;;;;;2.35;69.06;102102.47;5056022;28;45582;-60
2023/01/21 08:11:32;;;;;;;;;49.75;37.25;;;;;2.26;69.14;102097.19;5055997;28;45492;-61
2023/01/21 08:13:57;;;;;;;;;55.00;39.00;;;;;2.32;69.02;102118.19;5054974;28;45584;-61
2023/01/21 08:16:23;;;;;;;;;49.25;39.75;;;;;2.25;68.85;102115.56;5057816;28;45354;-62
2023/01/21 08:18:48;;;;;;;;;47.50;40.50;;;;;2.25;69.29;102103.34;5055351;28;45569;-60
2023/01/21 08:21:14;;;;;;;;;49.25;42.00;;;;;2.26;68.80;102110.34;5070393;27;46625;-61
2023/01/21 08:23:39;;;;;;;;;48.50;39.25;;;;;2.25;68.83;102105.97;5052445;28;45397;-61
2023/01/21 08:26:06;;;;;;;;;54.00;38.00;;;;;2.32;68.72;102097.19;5051831;28;44945;-61
2023/01/21 08:28:32;;;;;;;;;55.75;40.50;;;;;2.42;68.28;102118.22;5057200;28;45426;-64
2023/01/21 08:31:06;;;;;;;;;60.50;46.75;;;;;2.40;68.43;102122.59;5056644;28;46362;-61
2023/01/21 08:33:31;;;;;;;;;46.50;39.75;;;;;2.32;68.29;102118.19;5057193;28;45223;-63
2023/01/21 08:36:02;;;;;;;;;54.50;44.50;;;;;2.35;68.45;102139.25;5056627;28;45320;-61
2023/01/21 08:38:28;;;;;;;;;60.00;49.00;;;;;2.42;68.49;102128.72;5054421;28;45619;-63
2023/01/21 08:40:56;;;;;;;;;58.00;44.00;;;;;2.40;68.54;102138.38;5056353;28;45543;-62
2023/01/21 08:43:21;;;;;;;;;45.00;39.25;;;;;2.40;67.99;102141.00;5055903;28;45362;-60
2023/01/21 08:45:46;;;;;;;;;42.00;33.50;;;;;2.30;68.21;102135.72;5054933;28;45541;-60
2023/01/21 08:48:12;;;;;;;;;42.50;40.00;;;;;2.48;68.19;102155.03;5056547;28;45822;-62
2023/01/21 08:50:37;;;;;;;;;47.50;38.50;;;;;2.43;68.49;102136.63;5057275;28;46285;-61
2023/01/21 08:53:03;;;;;;;;;52.25;47.00;;;;;2.61;67.62;102152.41;5055908;28;45554;-62
2023/01/21 08:55:28;;;;;;;;;44.75;35.00;;;;;2.54;67.51;102140.13;5056824;28;45544;-64
2023/01/21 08:57:54;;;;;;;;;51.00;38.75;;;;;2.52;67.78;102162.03;5060551;28;45653;-62
2023/01/21 09:00:22;;;;;;;;;52.00;28.75;;;;;2.52;67.57;102146.28;5055208;28;45499;-62
2023/01/21 09:02:47;;;;;;;;;60.00;48.50;;;;;2.54;67.17;102155.03;5054785;28;45492;-59
2023/01/21 09:05:13;;;;;;;;;48.75;35.50;;;;;2.61;67.72;102157.69;5056343;28;45618;-59
2023/01/21 09:07:42;;;;;;;;;51.25;45.00;;;;;2.61;67.48;102159.44;5053443;28;45527;-60
2023/01/21 09:10:08;;;;;;;;;41.75;38.75;;;;;2.65;67.27;102161.19;5063720;28;46912;-60
2023/01/21 09:12:34;;;;;;;;;55.25;45.75;;;;;2.82;67.02;102169.94;5060050;28;45545;-61
2023/01/21 09:14:59;;;;;;;;;53.25;40.50;;;;;2.94;66.91;102156.81;5052266;28;45444;-60
2023/01/21 09:17:25;;;;;;;;;46.50;43.75;;;;;3.01;66.45;102156.84;5056288;28;45224;-60
2023/01/21 09:19:51;;;;;;;;;32.75;28.00;;;;;2.96;65.48;102143.66;5054402;28;46295;-62
2023/01/21 09:22:16;;;;;;;;;47.50;42.50;;;;;2.94;65.17;102154.19;5054503;28;45494;-60
2023/01/21 09:24:42;;;;;;;;;53.00;45.25;;;;;2.96;65.99;102170.81;5056097;28;45386;-62
2023/01/21 09:27:08;;;;;;;;;48.75;43.50;;;;;3.04;65.63;102172.59;5055991;28;45675;-60
2023/01/21 09:29:34;;;;;;;;;57.75;44.25;;;;;3.08;65.16;102175.22;5058024;28;45351;-59
2023/01/21 09:32:01;;;;;;;;;48.75;39.75;;;;;3.03;65.19;102176.09;5045879;28;45552;-61
2023/01/21 09:34:26;;;;;;;;;51.25;44.50;;;;;2.96;65.20;102180.47;5036213;28;45284;-60
2023/01/21 09:36:52;;;;;;;;;50.75;46.75;;;;;3.01;65.38;102204.16;5046903;28;45406;-61
2023/01/21 09:39:17;;;;;;;;;47.00;43.50;;;;;3.06;65.69;102194.50;5059008;28;52087;-63
2023/01/21 09:41:48;;;;;;;;;47.75;40.50;;;;;3.11;64.99;102195.38;5056143;28;45553;-61
2023/01/21 09:44:29;;;;;;;;;39.75;34.25;;;;;3.18;64.85;102215.53;5050711;28;45927;-67
2023/01/21 09:47:02;;;;;;;;;57.75;42.00;;;;;3.12;64.68;102210.25;5061526;27;45578;-59
2023/01/21 09:49:40;;;;;;;;;47.50;38.75;;;;;3.09;64.87;102212.88;5046043;28;45457;-60
2023/01/21 09:52:41;;;;;;;;;41.25;36.00;;;;;3.10;64.98;102226.03;5055953;28;45370;-60
2023/01/21 09:55:18;;;;;;;;;50.50;38.50;;;;;3.12;65.05;102228.66;5054690;28;45446;-61
2023/01/21 09:58:05;;;;;;;;;43.50;39.75;;;;;3.20;65.05;102238.31;5048354;28;46577;-63
2023/01/21 10:00:40;;;;;;;;;39.50;31.75;;;;;3.33;64.82;102231.31;5059383;28;47107;-62
2023/01/21 10:03:27;;;;;;;;;52.25;41.00;;;;;3.23;64.48;102234.81;5054473;28;45448;-60
2023/01/21 10:06:08;;;;;;;;;41.50;41.50;;;;;3.34;65.00;102237.44;5055360;28;45487;-59
2023/01/21 10:08:50;;;;;;;;;49.00;43.75;;;;;3.21;64.39;102247.94;5055624;28;45333;-64
2023/01/21 10:11:33;;;;;;;;;52.50;45.50;;;;;3.39;64.80;102260.25;5057640;28;45856;-61
2023/01/21 10:14:21;;;;;;;;;47.00;43.00;;;;;3.43;64.46;102254.09;5052985;28;45631;-61
2023/01/21 10:17:08;;;;;;;;;59.50;42.25;;;;;3.63;63.40;102263.72;5053402;28;45493;-61
2023/01/21 10:20:15;;;;;;;;;56.50;46.75;;;;;3.62;63.41;102256.72;5060844;28;45553;-59
2023/01/21 10:23:05;;;;;;;;;67.75;49.00;;;;;3.60;63.33;102261.09;5053682;28;46434;-60
2023/01/21 10:25:32;;;;;;;;;45.00;39.75;;;;;3.67;64.16;102270.75;5052202;28;45722;-59
2023/01/21 10:28:11;;;;;;;;;36.50;20.00;;;;;3.78;63.48;102275.13;5067733;27;45510;-60
2023/01/21 10:30:42;;;;;;;;;52.50;37.75;;;;;3.84;62.99;102271.59;5055357;28;45394;-61
2023/01/21 10:33:31;;;;;;;;;44.25;44.00;;;;;3.91;62.20;102276.00;5053913;28;45413;-62
2023/01/21 10:36:23;;;;;;;;;57.50;45.00;;;;;3.96;62.65;102279.47;5066775;28;45663;-59
2023/01/21 10:38:51;;;;;;;;;55.50;44.00;;;;;4.02;63.06;102274.19;5054915;28;45286;-59
2023/01/21 10:41:59;;;;;;;;;54.75;39.25;;;;;4.21;61.92;102268.91;5047310;28;45551;-61
2023/01/21 10:44:38;;;;;;;;;56.50;44.50;;;;;4.20;61.19;102264.50;5046031;28;46099;-59
2023/01/21 10:47:30;;;;;;;;;48.25;34.00;;;;;4.31;60.34;102260.97;5050722;28;45625;-60
2023/01/21 10:50:29;;;;;;;;;49.00;39.50;;;;;4.47;60.77;102251.25;5038969;28;45333;-61
2023/01/21 10:53:04;;;;;;;;;54.75;42.75;;;;;4.31;60.31;102262.72;5057547;28;45476;-61
2023/01/21 10:55:38;;;;;;;;;58.75;46.00;;;;;4.35;60.18;102281.13;5055335;28;48405;-61
2023/01/21 10:58:17;;;;;;;;;42.75;36.25;;;;;4.40;60.17;102265.31;5057295;28;45449;-60
2023/01/21 11:00:47;;;;;;;;;43.25;39.25;;;;;4.47;59.72;102261.78;5059065;28;45452;-61
2023/01/21 11:03:18;;;;;;;;;60.50;48.50;;;;;4.42;60.11;102250.38;5059663;28;45389;-59
2023/01/21 11:05:44;;;;;;;;;51.50;43.00;;;;;4.66;60.10;102263.44;5056523;28;45606;-60
2023/01/21 11:08:21;;;;;;;;;50.50;43.25;;;;;4.59;59.26;102240.66;5057573;28;45552;-60
2023/01/21 11:10:52;;;;;;;;;45.00;38.75;;;;;4.59;59.10;102274.91;5059081;28;45403;-60
2023/01/21 11:13:17;;;;;;;;;48.00;41.00;;;;;4.55;59.87;102269.63;5057695;28;45353;-60
2023/01/21 11:15:51;;;;;;;;;34.75;28.25;;;;;4.53;59.49;102272.28;5057980;28;45546;-59
2023/01/21 11:18:34;;;;;;;;;45.25;40.25;;;;;4.51;58.96;102274.03;5060769;28;45436;-60
2023/01/21 11:21:17;;;;;;;;;52.25;39.50;;;;;4.51;59.80;102271.41;5055072;28;45608;-59
2023/01/21 11:23:53;;;;;;;;;41.25;34.75;;;;;4.76;59.26;102279.22;5058761;28;45365;-59
2023/01/21 11:26:32;;;;;;;;;60.50;43.50;;;;;4.67;58.57;102278.34;5047919;28;46177;-60
2023/01/21 11:29:14;;;;;;;;;45.00;41.25;;;;;4.61;58.96;102291.56;5056825;28;45479;-60
2023/01/21 11:31:42;;;;;;;;;38.50;34.00;;;;;4.56;59.14;102285.47;5057312;28;45501;-60
2023/01/21 11:34:15;;;;;;;;;56.00;43.50;;;;;4.63;59.34;102287.16;5059976;28;45632;-59
2023/01/21 11:37:05;;;;;;;;;51.25;43.00;;;;;4.80;59.23;102283.56;5058334;28;45406;-62